sensor_id;sensor_type;location;lat;lon;timestamp;P1;durP1;ratioP1;P2;durP2;ratioP2
15567;SDS011;7885;42.596;23.044;2024-02-26T00:01:49;31.50;;;24.47;;
15567;SDS011;7885;42.596;23.044;2024-02-26T00:04:16;27.13;;;22.63;;
15567;SDS011;7885;42.596;23.044;2024-02-26T00:06:44;21.53;;;17.47;;
15567;SDS011;7885;42.596;23.044;2024-02-26T00:09:11;28.03;;;25.13;;
15567;SDS011;7885;42.596;23.044;2024-02-26T00:11:38;24.03;;;21.60;;
15567;SDS011;7885;42.596;23.044;2024-02-26T00:14:05;19.97;;;16.33;;
15567;SDS011;7885;42.596;23.044;2024-02-26T00:16:35;19.67;;;16.37;;
15567;SDS011;7885;42.596;23.044;2024-02-26T00:19:01;17.13;;;14.77;;
15567;SDS011;7885;42.596;23.044;2024-02-26T00:21:28;21.47;;;19.47;;
15567;SDS011;7885;42.596;23.044;2024-02-26T00:23:56;11.33;;;10.00;;
15567;SDS011;7885;42.596;23.044;2024-02-26T00:26:23;11.73;;;10.03;;
15567;SDS011;7885;42.596;23.044;2024-02-26T00:28:50;15.07;;;13.37;;
15567;SDS011;7885;42.596;23.044;2024-02-26T00:31:17;16.17;;;14.53;;
15567;SDS011;7885;42.596;23.044;2024-02-26T00:33:44;14.13;;;12.50;;
15567;SDS011;7885;42.596;23.044;2024-02-26T00:36:10;13.47;;;8.67;;
15567;SDS011;7885;42.596;23.044;2024-02-26T00:38:37;10.63;;;8.37;;
15567;SDS011;7885;42.596;23.044;2024-02-26T00:41:06;24.50;;;20.50;;
15567;SDS011;7885;42.596;23.044;2024-02-26T00:43:32;18.87;;;15.87;;
15567;SDS011;7885;42.596;23.044;2024-02-26T00:45:59;15.47;;;13.87;;
15567;SDS011;7885;42.596;23.044;2024-02-26T00:48:27;22.33;;;20.03;;
15567;SDS011;7885;42.596;23.044;2024-02-26T00:50:54;20.37;;;17.00;;
15567;SDS011;7885;42.596;23.044;2024-02-26T00:53:20;22.40;;;17.83;;
15567;SDS011;7885;42.596;23.044;2024-02-26T00:55:47;24.43;;;18.33;;
15567;SDS011;7885;42.596;23.044;2024-02-26T00:58:16;26.70;;;21.43;;
15567;SDS011;7885;42.596;23.044;2024-02-26T01:00:43;33.93;;;26.10;;
15567;SDS011;7885;42.596;23.044;2024-02-26T01:03:09;27.87;;;20.73;;
15567;SDS011;7885;42.596;23.044;2024-02-26T01:05:36;23.07;;;19.20;;
15567;SDS011;7885;42.596;23.044;2024-02-26T01:08:03;22.97;;;17.93;;
15567;SDS011;7885;42.596;23.044;2024-02-26T01:10:30;22.40;;;16.53;;
15567;SDS011;7885;42.596;23.044;2024-02-26T01:12:57;23.57;;;15.63;;
15567;SDS011;7885;42.596;23.044;2024-02-26T01:15:26;22.67;;;17.37;;
15567;SDS011;7885;42.596;23.044;2024-02-26T01:17:52;36.07;;;26.27;;
15567;SDS011;7885;42.596;23.044;2024-02-26T01:20:19;31.33;;;22.93;;
15567;SDS011;7885;42.596;23.044;2024-02-26T01:22:46;25.07;;;20.00;;
15567;SDS011;7885;42.596;23.044;2024-02-26T01:25:13;21.83;;;15.53;;
15567;SDS011;7885;42.596;23.044;2024-02-26T01:27:41;26.33;;;18.70;;
15567;SDS011;7885;42.596;23.044;2024-02-26T01:30:09;26.73;;;17.30;;
15567;SDS011;7885;42.596;23.044;2024-02-26T01:32:38;27.27;;;17.67;;
15567;SDS011;7885;42.596;23.044;2024-02-26T01:35:05;28.07;;;18.07;;
15567;SDS011;7885;42.596;23.044;2024-02-26T01:37:35;28.97;;;20.27;;
15567;SDS011;7885;42.596;23.044;2024-02-26T01:40:02;34.90;;;22.53;;
15567;SDS011;7885;42.596;23.044;2024-02-26T01:42:30;31.33;;;22.57;;
15567;SDS011;7885;42.596;23.044;2024-02-26T01:44:58;30.20;;;20.63;;
15567;SDS011;7885;42.596;23.044;2024-02-26T01:47:25;28.00;;;21.97;;
15567;SDS011;7885;42.596;23.044;2024-02-26T01:49:55;34.90;;;22.13;;
15567;SDS011;7885;42.596;23.044;2024-02-26T01:52:22;40.63;;;24.00;;
15567;SDS011;7885;42.596;23.044;2024-02-26T01:54:49;30.97;;;20.73;;
15567;SDS011;7885;42.596;23.044;2024-02-26T01:57:16;26.50;;;18.43;;
15567;SDS011;7885;42.596;23.044;2024-02-26T01:59:44;20.80;;;17.57;;
15567;SDS011;7885;42.596;23.044;2024-02-26T02:02:11;21.73;;;18.87;;
15567;SDS011;7885;42.596;23.044;2024-02-26T02:04:38;27.33;;;14.87;;
15567;SDS011;7885;42.596;23.044;2024-02-26T02:07:07;28.73;;;15.03;;
15567;SDS011;7885;42.596;23.044;2024-02-26T02:09:34;26.73;;;15.23;;
15567;SDS011;7885;42.596;23.044;2024-02-26T02:12:01;35.40;;;19.47;;
15567;SDS011;7885;42.596;23.044;2024-02-26T02:14:28;38.77;;;20.20;;
15567;SDS011;7885;42.596;23.044;2024-02-26T02:16:55;23.70;;;16.17;;
15567;SDS011;7885;42.596;23.044;2024-02-26T02:19:22;27.13;;;17.47;;
15567;SDS011;7885;42.596;23.044;2024-02-26T02:21:50;31.77;;;19.53;;
15567;SDS011;7885;42.596;23.044;2024-02-26T02:24:17;30.97;;;19.87;;
15567;SDS011;7885;42.596;23.044;2024-02-26T02:26:44;29.20;;;19.57;;
15567;SDS011;7885;42.596;23.044;2024-02-26T02:29:11;23.00;;;17.13;;
15567;SDS011;7885;42.596;23.044;2024-02-26T02:31:39;27.60;;;18.80;;
15567;SDS011;7885;42.596;23.044;2024-02-26T02:34:06;31.63;;;26.47;;
15567;SDS011;7885;42.596;23.044;2024-02-26T02:36:33;34.23;;;25.70;;
15567;SDS011;7885;42.596;23.044;2024-02-26T02:39:01;30.73;;;21.90;;
15567;SDS011;7885;42.596;23.044;2024-02-26T02:41:28;31.07;;;21.93;;
15567;SDS011;7885;42.596;23.044;2024-02-26T02:43:55;33.73;;;22.37;;
15567;SDS011;7885;42.596;23.044;2024-02-26T02:46:22;29.10;;;21.93;;
15567;SDS011;7885;42.596;23.044;2024-02-26T02:48:49;29.20;;;20.80;;
15567;SDS011;7885;42.596;23.044;2024-02-26T02:51:16;34.03;;;22.40;;
15567;SDS011;7885;42.596;23.044;2024-02-26T02:53:42;28.50;;;21.07;;
15567;SDS011;7885;42.596;23.044;2024-02-26T02:56:11;28.73;;;21.73;;
15567;SDS011;7885;42.596;23.044;2024-02-26T02:58:37;27.10;;;20.50;;
15567;SDS011;7885;42.596;23.044;2024-02-26T03:01:04;30.03;;;22.70;;
15567;SDS011;7885;42.596;23.044;2024-02-26T03:03:31;26.40;;;20.97;;
15567;SDS011;7885;42.596;23.044;2024-02-26T03:05:58;27.87;;;23.00;;
15567;SDS011;7885;42.596;23.044;2024-02-26T03:08:24;28.20;;;21.57;;
15567;SDS011;7885;42.596;23.044;2024-02-26T03:10:51;27.50;;;19.13;;
15567;SDS011;7885;42.596;23.044;2024-02-26T03:13:20;23.70;;;17.27;;
15567;SDS011;7885;42.596;23.044;2024-02-26T03:15:46;17.70;;;15.37;;
15567;SDS011;7885;42.596;23.044;2024-02-26T03:18:13;21.10;;;17.07;;
15567;SDS011;7885;42.596;23.044;2024-02-26T03:20:40;21.50;;;16.30;;
15567;SDS011;7885;42.596;23.044;2024-02-26T03:23:07;22.37;;;15.60;;
15567;SDS011;7885;42.596;23.044;2024-02-26T03:25:37;20.07;;;15.87;;
15567;SDS011;7885;42.596;23.044;2024-02-26T03:28:04;24.40;;;18.30;;
15567;SDS011;7885;42.596;23.044;2024-02-26T03:30:32;20.97;;;18.03;;
15567;SDS011;7885;42.596;23.044;2024-02-26T03:32:59;27.60;;;18.90;;
15567;SDS011;7885;42.596;23.044;2024-02-26T03:35:26;40.53;;;27.47;;
15567;SDS011;7885;42.596;23.044;2024-02-26T03:37:53;39.53;;;28.10;;
15567;SDS011;7885;42.596;23.044;2024-02-26T03:40:20;31.43;;;22.67;;
15567;SDS011;7885;42.596;23.044;2024-02-26T03:42:46;25.03;;;19.40;;
15567;SDS011;7885;42.596;23.044;2024-02-26T03:45:13;18.80;;;13.27;;
15567;SDS011;7885;42.596;23.044;2024-02-26T03:47:42;19.30;;;12.47;;
15567;SDS011;7885;42.596;23.044;2024-02-26T03:50:09;18.10;;;13.53;;
15567;SDS011;7885;42.596;23.044;2024-02-26T03:52:36;23.03;;;16.77;;
15567;SDS011;7885;42.596;23.044;2024-02-26T03:55:03;18.57;;;15.20;;
15567;SDS011;7885;42.596;23.044;2024-02-26T03:57:30;15.37;;;13.77;;
15567;SDS011;7885;42.596;23.044;2024-02-26T03:59:56;19.33;;;12.83;;
15567;SDS011;7885;42.596;23.044;2024-02-26T04:02:23;16.00;;;13.80;;
15567;SDS011;7885;42.596;23.044;2024-02-26T04:04:52;16.27;;;14.27;;
15567;SDS011;7885;42.596;23.044;2024-02-26T04:07:18;17.53;;;13.90;;
15567;SDS011;7885;42.596;23.044;2024-02-26T04:09:45;19.37;;;14.93;;
15567;SDS011;7885;42.596;23.044;2024-02-26T04:12:12;19.37;;;15.47;;
15567;SDS011;7885;42.596;23.044;2024-02-26T04:14:39;18.30;;;15.33;;
15567;SDS011;7885;42.596;23.044;2024-02-26T04:17:06;19.50;;;15.27;;
15567;SDS011;7885;42.596;23.044;2024-02-26T04:19:33;17.73;;;15.13;;
15567;SDS011;7885;42.596;23.044;2024-02-26T04:22:01;17.67;;;15.43;;
15567;SDS011;7885;42.596;23.044;2024-02-26T04:24:28;16.47;;;14.10;;
15567;SDS011;7885;42.596;23.044;2024-02-26T04:26:54;20.13;;;15.93;;
15567;SDS011;7885;42.596;23.044;2024-02-26T04:29:21;22.40;;;17.43;;
15567;SDS011;7885;42.596;23.044;2024-02-26T04:31:48;24.03;;;21.53;;
15567;SDS011;7885;42.596;23.044;2024-02-26T04:34:15;26.43;;;23.57;;
15567;SDS011;7885;42.596;23.044;2024-02-26T04:36:41;22.23;;;19.80;;
15567;SDS011;7885;42.596;23.044;2024-02-26T04:39:10;23.00;;;19.83;;
15567;SDS011;7885;42.596;23.044;2024-02-26T04:41:37;23.40;;;19.23;;
15567;SDS011;7885;42.596;23.044;2024-02-26T04:44:03;23.30;;;19.53;;
15567;SDS011;7885;42.596;23.044;2024-02-26T04:46:30;25.07;;;20.73;;
15567;SDS011;7885;42.596;23.044;2024-02-26T04:48:57;24.03;;;21.53;;
15567;SDS011;7885;42.596;23.044;2024-02-26T04:51:24;25.77;;;22.97;;
15567;SDS011;7885;42.596;23.044;2024-02-26T04:53:51;23.40;;;17.20;;
15567;SDS011;7885;42.596;23.044;2024-02-26T04:56:20;19.13;;;15.63;;
15567;SDS011;7885;42.596;23.044;2024-02-26T04:58:47;29.77;;;20.50;;
15567;SDS011;7885;42.596;23.044;2024-02-26T05:01:14;24.40;;;18.00;;
15567;SDS011;7885;42.596;23.044;2024-02-26T05:03:41;24.30;;;20.10;;
15567;SDS011;7885;42.596;23.044;2024-02-26T05:06:08;30.13;;;21.73;;
15567;SDS011;7885;42.596;23.044;2024-02-26T05:08:35;28.33;;;19.30;;
15567;SDS011;7885;42.596;23.044;2024-02-26T05:11:03;24.57;;;17.03;;
15567;SDS011;7885;42.596;23.044;2024-02-26T05:13:32;22.13;;;16.20;;
15567;SDS011;7885;42.596;23.044;2024-02-26T05:15:59;24.27;;;17.47;;
15567;SDS011;7885;42.596;23.044;2024-02-26T05:18:26;22.83;;;15.73;;
15567;SDS011;7885;42.596;23.044;2024-02-26T05:20:53;39.90;;;25.10;;
15567;SDS011;7885;42.596;23.044;2024-02-26T05:23:20;32.33;;;23.33;;
15567;SDS011;7885;42.596;23.044;2024-02-26T05:25:48;39.47;;;23.47;;
15567;SDS011;7885;42.596;23.044;2024-02-26T05:28:15;35.07;;;22.57;;
15567;SDS011;7885;42.596;23.044;2024-02-26T05:30:43;36.90;;;22.60;;
15567;SDS011;7885;42.596;23.044;2024-02-26T05:33:10;28.77;;;21.67;;
15567;SDS011;7885;42.596;23.044;2024-02-26T05:35:36;39.30;;;22.90;;
15567;SDS011;7885;42.596;23.044;2024-02-26T05:38:03;66.93;;;30.23;;
15567;SDS011;7885;42.596;23.044;2024-02-26T05:40:30;119.23;;;52.63;;
15567;SDS011;7885;42.596;23.044;2024-02-26T05:42:57;63.53;;;36.20;;
15567;SDS011;7885;42.596;23.044;2024-02-26T05:45:24;96.67;;;41.17;;
15567;SDS011;7885;42.596;23.044;2024-02-26T05:47:52;91.03;;;48.10;;
15567;SDS011;7885;42.596;23.044;2024-02-26T05:50:19;73.10;;;40.03;;
15567;SDS011;7885;42.596;23.044;2024-02-26T05:52:45;62.53;;;37.07;;
15567;SDS011;7885;42.596;23.044;2024-02-26T05:55:12;46.47;;;26.87;;
15567;SDS011;7885;42.596;23.044;2024-02-26T05:57:39;39.37;;;25.40;;
15567;SDS011;7885;42.596;23.044;2024-02-26T06:00:07;44.73;;;24.80;;
15567;SDS011;7885;42.596;23.044;2024-02-26T06:02:34;40.13;;;25.30;;
15567;SDS011;7885;42.596;23.044;2024-02-26T06:05:02;45.50;;;27.47;;
15567;SDS011;7885;42.596;23.044;2024-02-26T06:07:30;53.37;;;30.03;;
15567;SDS011;7885;42.596;23.044;2024-02-26T06:09:56;46.27;;;26.63;;
15567;SDS011;7885;42.596;23.044;2024-02-26T06:12:23;40.67;;;26.10;;
15567;SDS011;7885;42.596;23.044;2024-02-26T06:14:51;46.77;;;26.67;;
15567;SDS011;7885;42.596;23.044;2024-02-26T06:17:18;50.73;;;28.70;;
15567;SDS011;7885;42.596;23.044;2024-02-26T06:19:45;51.90;;;31.97;;
15567;SDS011;7885;42.596;23.044;2024-02-26T06:22:13;68.63;;;26.07;;
15567;SDS011;7885;42.596;23.044;2024-02-26T06:24:40;90.93;;;41.30;;
15567;SDS011;7885;42.596;23.044;2024-02-26T06:27:07;82.23;;;35.67;;
15567;SDS011;7885;42.596;23.044;2024-02-26T06:29:34;88.50;;;37.10;;
15567;SDS011;7885;42.596;23.044;2024-02-26T06:32:00;81.80;;;36.07;;
15567;SDS011;7885;42.596;23.044;2024-02-26T06:47:56;58.53;;;22.27;;
15567;SDS011;7885;42.596;23.044;2024-02-26T06:50:23;42.77;;;19.93;;
15567;SDS011;7885;42.596;23.044;2024-02-26T06:52:50;48.13;;;20.00;;
15567;SDS011;7885;42.596;23.044;2024-02-26T06:55:16;46.70;;;20.67;;
15567;SDS011;7885;42.596;23.044;2024-02-26T06:57:43;41.93;;;19.50;;
15567;SDS011;7885;42.596;23.044;2024-02-26T07:00:10;39.97;;;18.03;;
15567;SDS011;7885;42.596;23.044;2024-02-26T07:02:40;35.20;;;18.00;;
15567;SDS011;7885;42.596;23.044;2024-02-26T07:05:09;38.67;;;19.80;;
15567;SDS011;7885;42.596;23.044;2024-02-26T07:07:36;47.87;;;25.17;;
15567;SDS011;7885;42.596;23.044;2024-02-26T07:10:03;55.10;;;34.13;;
15567;SDS011;7885;42.596;23.044;2024-02-26T07:12:31;47.03;;;28.50;;
15567;SDS011;7885;42.596;23.044;2024-02-26T07:14:58;53.10;;;32.40;;
15567;SDS011;7885;42.596;23.044;2024-02-26T07:17:25;43.03;;;29.07;;
15567;SDS011;7885;42.596;23.044;2024-02-26T07:19:52;54.97;;;35.93;;
15567;SDS011;7885;42.596;23.044;2024-02-26T07:22:20;50.77;;;34.67;;
15567;SDS011;7885;42.596;23.044;2024-02-26T07:24:47;45.10;;;28.50;;
15567;SDS011;7885;42.596;23.044;2024-02-26T07:27:14;36.80;;;26.13;;
15567;SDS011;7885;42.596;23.044;2024-02-26T07:29:42;31.03;;;20.80;;
15567;SDS011;7885;42.596;23.044;2024-02-26T07:35:30;34.57;;;24.07;;
15567;SDS011;7885;42.596;23.044;2024-02-26T07:38:00;34.23;;;22.37;;
15567;SDS011;7885;42.596;23.044;2024-02-26T07:40:26;31.13;;;22.37;;
15567;SDS011;7885;42.596;23.044;2024-02-26T07:42:53;37.20;;;25.90;;
15567;SDS011;7885;42.596;23.044;2024-02-26T07:45:21;41.93;;;27.23;;
15567;SDS011;7885;42.596;23.044;2024-02-26T07:47:47;32.70;;;24.37;;
15567;SDS011;7885;42.596;23.044;2024-02-26T07:50:16;35.23;;;26.47;;
15567;SDS011;7885;42.596;23.044;2024-02-26T07:52:43;39.93;;;27.27;;
15567;SDS011;7885;42.596;23.044;2024-02-26T07:58:33;37.80;;;25.53;;
15567;SDS011;7885;42.596;23.044;2024-02-26T08:01:00;39.77;;;26.20;;
15567;SDS011;7885;42.596;23.044;2024-02-26T08:03:27;31.93;;;24.30;;
15567;SDS011;7885;42.596;23.044;2024-02-26T08:05:54;32.07;;;22.60;;
15567;SDS011;7885;42.596;23.044;2024-02-26T08:08:21;36.17;;;22.73;;
15567;SDS011;7885;42.596;23.044;2024-02-26T08:10:48;27.80;;;19.47;;
15567;SDS011;7885;42.596;23.044;2024-02-26T08:13:15;31.87;;;21.27;;
15567;SDS011;7885;42.596;23.044;2024-02-26T08:15:43;33.17;;;21.60;;
15567;SDS011;7885;42.596;23.044;2024-02-26T08:18:10;29.17;;;19.47;;
15567;SDS011;7885;42.596;23.044;2024-02-26T08:20:37;30.17;;;19.30;;
15567;SDS011;7885;42.596;23.044;2024-02-26T08:23:04;26.23;;;18.73;;
15567;SDS011;7885;42.596;23.044;2024-02-26T08:25:30;30.17;;;20.57;;
15567;SDS011;7885;42.596;23.044;2024-02-26T08:27:57;36.90;;;21.83;;
15567;SDS011;7885;42.596;23.044;2024-02-26T08:30:24;36.33;;;22.33;;
15567;SDS011;7885;42.596;23.044;2024-02-26T08:32:52;34.43;;;20.67;;
15567;SDS011;7885;42.596;23.044;2024-02-26T08:35:19;34.63;;;20.63;;
15567;SDS011;7885;42.596;23.044;2024-02-26T08:37:46;33.17;;;21.60;;
15567;SDS011;7885;42.596;23.044;2024-02-26T08:40:13;32.43;;;19.07;;
15567;SDS011;7885;42.596;23.044;2024-02-26T08:42:41;33.20;;;20.97;;
15567;SDS011;7885;42.596;23.044;2024-02-26T08:45:08;36.87;;;21.80;;
15567;SDS011;7885;42.596;23.044;2024-02-26T08:47:36;33.27;;;23.17;;
15567;SDS011;7885;42.596;23.044;2024-02-26T08:50:05;39.50;;;23.93;;
15567;SDS011;7885;42.596;23.044;2024-02-26T08:52:34;34.90;;;23.13;;
15567;SDS011;7885;42.596;23.044;2024-02-26T08:55:01;40.47;;;23.47;;
15567;SDS011;7885;42.596;23.044;2024-02-26T08:57:29;31.83;;;21.93;;
15567;SDS011;7885;42.596;23.044;2024-02-26T08:59:57;35.17;;;21.13;;
15567;SDS011;7885;42.596;23.044;2024-02-26T09:02:25;39.00;;;21.67;;
15567;SDS011;7885;42.596;23.044;2024-02-26T09:04:53;41.47;;;26.03;;
15567;SDS011;7885;42.596;23.044;2024-02-26T09:07:21;40.53;;;26.73;;
15567;SDS011;7885;42.596;23.044;2024-02-26T09:09:48;37.20;;;24.97;;
15567;SDS011;7885;42.596;23.044;2024-02-26T09:12:16;37.73;;;24.40;;
15567;SDS011;7885;42.596;23.044;2024-02-26T09:14:43;35.90;;;24.67;;
15567;SDS011;7885;42.596;23.044;2024-02-26T09:17:10;34.30;;;25.70;;
15567;SDS011;7885;42.596;23.044;2024-02-26T09:19:37;32.33;;;22.17;;
15567;SDS011;7885;42.596;23.044;2024-02-26T09:22:04;40.57;;;22.97;;
15567;SDS011;7885;42.596;23.044;2024-02-26T09:24:32;33.40;;;21.57;;
15567;SDS011;7885;42.596;23.044;2024-02-26T09:26:59;35.43;;;23.47;;
15567;SDS011;7885;42.596;23.044;2024-02-26T09:29:26;43.33;;;25.73;;
15567;SDS011;7885;42.596;23.044;2024-02-26T09:31:52;33.83;;;21.87;;
15567;SDS011;7885;42.596;23.044;2024-02-26T09:34:19;36.27;;;22.30;;
15567;SDS011;7885;42.596;23.044;2024-02-26T09:36:46;31.70;;;22.30;;
15567;SDS011;7885;42.596;23.044;2024-02-26T09:39:13;35.20;;;22.53;;
15567;SDS011;7885;42.596;23.044;2024-02-26T09:41:47;33.27;;;22.63;;
15567;SDS011;7885;42.596;23.044;2024-02-26T09:44:14;34.27;;;25.13;;
15567;SDS011;7885;42.596;23.044;2024-02-26T09:46:45;29.07;;;20.70;;
15567;SDS011;7885;42.596;23.044;2024-02-26T09:49:14;29.20;;;20.07;;
15567;SDS011;7885;42.596;23.044;2024-02-26T09:51:41;32.23;;;20.53;;
15567;SDS011;7885;42.596;23.044;2024-02-26T09:54:09;29.90;;;20.67;;
15567;SDS011;7885;42.596;23.044;2024-02-26T09:56:37;28.77;;;19.40;;
15567;SDS011;7885;42.596;23.044;2024-02-26T09:59:09;25.53;;;18.67;;
15567;SDS011;7885;42.596;23.044;2024-02-26T10:01:39;29.23;;;21.23;;
15567;SDS011;7885;42.596;23.044;2024-02-26T10:04:08;26.20;;;16.33;;
15567;SDS011;7885;42.596;23.044;2024-02-26T10:06:36;26.43;;;17.97;;
15567;SDS011;7885;42.596;23.044;2024-02-26T10:09:03;23.80;;;17.03;;
15567;SDS011;7885;42.596;23.044;2024-02-26T10:11:32;25.80;;;17.10;;
15567;SDS011;7885;42.596;23.044;2024-02-26T10:13:59;26.53;;;19.10;;
15567;SDS011;7885;42.596;23.044;2024-02-26T10:16:27;27.23;;;19.20;;
15567;SDS011;7885;42.596;23.044;2024-02-26T10:18:55;32.17;;;20.27;;
15567;SDS011;7885;42.596;23.044;2024-02-26T10:21:22;33.50;;;21.93;;
15567;SDS011;7885;42.596;23.044;2024-02-26T10:23:49;29.73;;;21.67;;
15567;SDS011;7885;42.596;23.044;2024-02-26T10:26:17;29.27;;;18.23;;
15567;SDS011;7885;42.596;23.044;2024-02-26T10:28:44;27.07;;;19.13;;
15567;SDS011;7885;42.596;23.044;2024-02-26T10:31:11;25.90;;;16.57;;
15567;SDS011;7885;42.596;23.044;2024-02-26T10:33:42;21.00;;;14.30;;
15567;SDS011;7885;42.596;23.044;2024-02-26T10:36:09;25.63;;;16.63;;
15567;SDS011;7885;42.596;23.044;2024-02-26T10:38:37;24.57;;;16.60;;
15567;SDS011;7885;42.596;23.044;2024-02-26T10:41:04;27.03;;;17.77;;
15567;SDS011;7885;42.596;23.044;2024-02-26T10:43:33;28.47;;;18.50;;
15567;SDS011;7885;42.596;23.044;2024-02-26T10:46:00;25.70;;;16.73;;
15567;SDS011;7885;42.596;23.044;2024-02-26T10:48:27;28.03;;;17.40;;
15567;SDS011;7885;42.596;23.044;2024-02-26T10:50:55;28.13;;;18.07;;
15567;SDS011;7885;42.596;23.044;2024-02-26T10:53:23;29.77;;;19.50;;
15567;SDS011;7885;42.596;23.044;2024-02-26T10:55:54;24.47;;;16.83;;
15567;SDS011;7885;42.596;23.044;2024-02-26T10:58:23;25.13;;;16.00;;
15567;SDS011;7885;42.596;23.044;2024-02-26T11:00:51;28.30;;;16.47;;
15567;SDS011;7885;42.596;23.044;2024-02-26T11:03:18;27.30;;;16.13;;
15567;SDS011;7885;42.596;23.044;2024-02-26T11:05:47;26.77;;;15.90;;
15567;SDS011;7885;42.596;23.044;2024-02-26T11:08:16;24.33;;;14.90;;
15567;SDS011;7885;42.596;23.044;2024-02-26T11:10:46;21.50;;;14.47;;
15567;SDS011;7885;42.596;23.044;2024-02-26T11:13:14;22.23;;;11.87;;
15567;SDS011;7885;42.596;23.044;2024-02-26T11:15:44;21.43;;;11.80;;
15567;SDS011;7885;42.596;23.044;2024-02-26T11:18:13;19.80;;;12.43;;
15567;SDS011;7885;42.596;23.044;2024-02-26T11:20:42;23.40;;;11.23;;
15567;SDS011;7885;42.596;23.044;2024-02-26T11:23:09;18.57;;;12.33;;
15567;SDS011;7885;42.596;23.044;2024-02-26T11:25:37;20.27;;;11.43;;
15567;SDS011;7885;42.596;23.044;2024-02-26T11:28:06;19.57;;;10.77;;
15567;SDS011;7885;42.596;23.044;2024-02-26T11:33:59;20.20;;;12.00;;
15567;SDS011;7885;42.596;23.044;2024-02-26T11:36:26;19.43;;;12.13;;
15567;SDS011;7885;42.596;23.044;2024-02-26T11:38:53;22.47;;;13.77;;
15567;SDS011;7885;42.596;23.044;2024-02-26T11:41:23;19.33;;;13.13;;
15567;SDS011;7885;42.596;23.044;2024-02-26T11:50:34;18.87;;;12.17;;
15567;SDS011;7885;42.596;23.044;2024-02-26T11:53:20;15.30;;;11.50;;
15567;SDS011;7885;42.596;23.044;2024-02-26T11:55:48;14.60;;;11.23;;
15567;SDS011;7885;42.596;23.044;2024-02-26T11:58:36;16.80;;;10.90;;
15567;SDS011;7885;42.596;23.044;2024-02-26T12:01:05;14.87;;;10.03;;
15567;SDS011;7885;42.596;23.044;2024-02-26T12:03:32;14.73;;;10.10;;
15567;SDS011;7885;42.596;23.044;2024-02-26T12:05:59;16.67;;;10.33;;
15567;SDS011;7885;42.596;23.044;2024-02-26T12:08:26;13.20;;;9.63;;
15567;SDS011;7885;42.596;23.044;2024-02-26T12:10:53;15.03;;;9.80;;
15567;SDS011;7885;42.596;23.044;2024-02-26T12:13:21;13.53;;;9.73;;
15567;SDS011;7885;42.596;23.044;2024-02-26T12:22:49;14.97;;;9.83;;
15567;SDS011;7885;42.596;23.044;2024-02-26T12:25:17;14.23;;;9.67;;
15567;SDS011;7885;42.596;23.044;2024-02-26T12:27:47;14.67;;;10.50;;
15567;SDS011;7885;42.596;23.044;2024-02-26T12:30:14;11.37;;;7.97;;
15567;SDS011;7885;42.596;23.044;2024-02-26T12:32:41;12.70;;;8.40;;
15567;SDS011;7885;42.596;23.044;2024-02-26T12:35:08;13.13;;;8.60;;
15567;SDS011;7885;42.596;23.044;2024-02-26T12:37:35;13.60;;;7.93;;
15567;SDS011;7885;42.596;23.044;2024-02-26T12:40:05;21.80;;;9.07;;
15567;SDS011;7885;42.596;23.044;2024-02-26T12:42:34;15.17;;;10.50;;
15567;SDS011;7885;42.596;23.044;2024-02-26T12:45:04;14.00;;;10.17;;
15567;SDS011;7885;42.596;23.044;2024-02-26T12:47:35;11.10;;;8.87;;
15567;SDS011;7885;42.596;23.044;2024-02-26T12:50:02;14.33;;;8.57;;
15567;SDS011;7885;42.596;23.044;2024-02-26T12:52:30;12.33;;;7.57;;
15567;SDS011;7885;42.596;23.044;2024-02-26T12:54:57;8.57;;;7.10;;
15567;SDS011;7885;42.596;23.044;2024-02-26T12:57:26;10.77;;;7.53;;
15567;SDS011;7885;42.596;23.044;2024-02-26T12:59:55;7.20;;;6.30;;
15567;SDS011;7885;42.596;23.044;2024-02-26T13:02:22;10.13;;;6.47;;
15567;SDS011;7885;42.596;23.044;2024-02-26T13:04:49;7.57;;;6.70;;
15567;SDS011;7885;42.596;23.044;2024-02-26T13:07:16;9.00;;;6.93;;
15567;SDS011;7885;42.596;23.044;2024-02-26T13:09:43;9.17;;;7.40;;
15567;SDS011;7885;42.596;23.044;2024-02-26T13:12:10;8.10;;;6.43;;
15567;SDS011;7885;42.596;23.044;2024-02-26T13:14:39;9.83;;;7.30;;
15567;SDS011;7885;42.596;23.044;2024-02-26T13:17:06;11.27;;;7.13;;
15567;SDS011;7885;42.596;23.044;2024-02-26T13:19:34;9.83;;;7.60;;
15567;SDS011;7885;42.596;23.044;2024-02-26T13:22:04;9.17;;;6.73;;
15567;SDS011;7885;42.596;23.044;2024-02-26T13:24:32;9.77;;;7.20;;
15567;SDS011;7885;42.596;23.044;2024-02-26T13:26:59;8.70;;;6.77;;
15567;SDS011;7885;42.596;23.044;2024-02-26T13:29:28;8.80;;;7.17;;
15567;SDS011;7885;42.596;23.044;2024-02-26T13:31:56;9.30;;;7.10;;
15567;SDS011;7885;42.596;23.044;2024-02-26T13:34:24;11.07;;;7.33;;
15567;SDS011;7885;42.596;23.044;2024-02-26T13:36:52;11.67;;;7.90;;
15567;SDS011;7885;42.596;23.044;2024-02-26T13:39:22;13.97;;;10.67;;
15567;SDS011;7885;42.596;23.044;2024-02-26T13:41:50;21.23;;;10.93;;
15567;SDS011;7885;42.596;23.044;2024-02-26T13:44:17;11.43;;;7.93;;
15567;SDS011;7885;42.596;23.044;2024-02-26T13:46:43;11.80;;;6.77;;
15567;SDS011;7885;42.596;23.044;2024-02-26T13:49:12;7.87;;;6.77;;
15567;SDS011;7885;42.596;23.044;2024-02-26T13:51:39;8.03;;;5.97;;
15567;SDS011;7885;42.596;23.044;2024-02-26T13:54:06;7.23;;;5.87;;
15567;SDS011;7885;42.596;23.044;2024-02-26T13:56:34;8.53;;;6.10;;
15567;SDS011;7885;42.596;23.044;2024-02-26T13:59:02;9.50;;;5.90;;
15567;SDS011;7885;42.596;23.044;2024-02-26T14:01:29;6.73;;;5.87;;
15567;SDS011;7885;42.596;23.044;2024-02-26T14:03:58;10.90;;;6.00;;
15567;SDS011;7885;42.596;23.044;2024-02-26T14:06:28;10.83;;;6.30;;
15567;SDS011;7885;42.596;23.044;2024-02-26T14:08:55;11.67;;;7.10;;
15567;SDS011;7885;42.596;23.044;2024-02-26T14:11:22;9.90;;;6.00;;
15567;SDS011;7885;42.596;23.044;2024-02-26T14:13:50;9.07;;;6.70;;
15567;SDS011;7885;42.596;23.044;2024-02-26T14:16:17;8.87;;;6.63;;
15567;SDS011;7885;42.596;23.044;2024-02-26T14:18:45;10.47;;;6.63;;
15567;SDS011;7885;42.596;23.044;2024-02-26T14:21:12;8.63;;;6.93;;
15567;SDS011;7885;42.596;23.044;2024-02-26T14:23:40;7.97;;;6.07;;
15567;SDS011;7885;42.596;23.044;2024-02-26T14:26:09;9.00;;;6.47;;
15567;SDS011;7885;42.596;23.044;2024-02-26T14:28:36;11.07;;;6.60;;
15567;SDS011;7885;42.596;23.044;2024-02-26T14:31:05;7.93;;;6.93;;
15567;SDS011;7885;42.596;23.044;2024-02-26T14:33:37;10.70;;;7.50;;
15567;SDS011;7885;42.596;23.044;2024-02-26T14:36:04;9.60;;;8.30;;
15567;SDS011;7885;42.596;23.044;2024-02-26T14:38:32;12.63;;;8.10;;
15567;SDS011;7885;42.596;23.044;2024-02-26T14:41:00;9.40;;;8.10;;
15567;SDS011;7885;42.596;23.044;2024-02-26T14:43:27;10.53;;;8.27;;
15567;SDS011;7885;42.596;23.044;2024-02-26T14:45:54;12.90;;;9.20;;
15567;SDS011;7885;42.596;23.044;2024-02-26T14:48:20;27.20;;;10.00;;
15567;SDS011;7885;42.596;23.044;2024-02-26T14:50:47;12.10;;;8.63;;
15567;SDS011;7885;42.596;23.044;2024-02-26T14:53:14;11.13;;;8.90;;
15567;SDS011;7885;42.596;23.044;2024-02-26T14:55:41;10.90;;;9.00;;
15567;SDS011;7885;42.596;23.044;2024-02-26T14:58:09;13.77;;;9.20;;
15567;SDS011;7885;42.596;23.044;2024-02-26T15:00:36;10.70;;;8.67;;
15567;SDS011;7885;42.596;23.044;2024-02-26T15:03:05;11.17;;;8.50;;
15567;SDS011;7885;42.596;23.044;2024-02-26T15:05:32;12.10;;;8.77;;